sensor_id;sensor_type;location;lat;lon;timestamp;temperature;humidity
5881;DHT22;2966;52.598;10.928;2022-09-16T00:01:10;10.90;99.90
5881;DHT22;2966;52.598;10.928;2022-09-16T00:03:38;10.90;99.90
5881;DHT22;2966;52.598;10.928;2022-09-16T00:06:06;10.90;99.90
5881;DHT22;2966;52.598;10.928;2022-09-16T00:08:33;10.80;99.90
5881;DHT22;2966;52.598;10.928;2022-09-16T00:11:01;10.80;99.90
5881;DHT22;2966;52.598;10.928;2022-09-16T00:13:28;10.70;99.90
5881;DHT22;2966;52.598;10.928;2022-09-16T00:15:55;10.70;99.90
5881;DHT22;2966;52.598;10.928;2022-09-16T00:18:24;10.70;99.90
5881;DHT22;2966;52.598;10.928;2022-09-16T00:20:51;10.60;99.90
5881;DHT22;2966;52.598;10.928;2022-09-16T00:23:19;10.60;99.90
5881;DHT22;2966;52.598;10.928;2022-09-16T00:25:49;10.50;99.90
5881;DHT22;2966;52.598;10.928;2022-09-16T00:28:18;10.50;99.90
5881;DHT22;2966;52.598;10.928;2022-09-16T00:30:46;10.50;99.90
5881;DHT22;2966;52.598;10.928;2022-09-16T00:33:13;10.50;99.90
5881;DHT22;2966;52.598;10.928;2022-09-16T00:35:40;10.50;99.90
5881;DHT22;2966;52.598;10.928;2022-09-16T00:38:06;10.50;99.90
5881;DHT22;2966;52.598;10.928;2022-09-16T00:40:33;10.40;99.90
5881;DHT22;2966;52.598;10.928;2022-09-16T00:43:00;10.40;99.90
5881;DHT22;2966;52.598;10.928;2022-09-16T00:45:32;10.30;99.90
5881;DHT22;2966;52.598;10.928;2022-09-16T00:48:05;10.30;99.90
5881;DHT22;2966;52.598;10.928;2022-09-16T00:50:35;10.30;99.90
5881;DHT22;2966;52.598;10.928;2022-09-16T00:53:03;10.20;99.90
5881;DHT22;2966;52.598;10.928;2022-09-16T00:55:33;10.20;99.90
5881;DHT22;2966;52.598;10.928;2022-09-16T00:58:03;10.20;99.90
5881;DHT22;2966;52.598;10.928;2022-09-16T01:00:33;10.20;99.90
5881;DHT22;2966;52.598;10.928;2022-09-16T01:03:01;10.10;99.90
5881;DHT22;2966;52.598;10.928;2022-09-16T01:05:29;10.10;99.90
5881;DHT22;2966;52.598;10.928;2022-09-16T01:07:56;10.10;99.90
5881;DHT22;2966;52.598;10.928;2022-09-16T01:10:24;10.10;99.90
5881;DHT22;2966;52.598;10.928;2022-09-16T01:12:54;10.00;99.90
5881;DHT22;2966;52.598;10.928;2022-09-16T01:15:25;10.10;99.90
5881;DHT22;2966;52.598;10.928;2022-09-16T01:18:03;10.00;99.90
5881;DHT22;2966;52.598;10.928;2022-09-16T01:20:57;10.00;99.90
5881;DHT22;2966;52.598;10.928;2022-09-16T01:23:53;10.00;99.90
5881;DHT22;2966;52.598;10.928;2022-09-16T01:26:50;10.00;99.90
5881;DHT22;2966;52.598;10.928;2022-09-16T01:29:31;10.00;99.90
5881;DHT22;2966;52.598;10.928;2022-09-16T01:32:03;10.00;99.90
5881;DHT22;2966;52.598;10.928;2022-09-16T01:34:37;9.90;99.90
5881;DHT22;2966;52.598;10.928;2022-09-16T01:37:10;9.90;99.90
5881;DHT22;2966;52.598;10.928;2022-09-16T01:39:45;10.00;99.90
5881;DHT22;2966;52.598;10.928;2022-09-16T01:42:19;9.90;99.90
5881;DHT22;2966;52.598;10.928;2022-09-16T01:44:55;9.90;99.90
5881;DHT22;2966;52.598;10.928;2022-09-16T01:47:33;10.00;99.90
5881;DHT22;2966;52.598;10.928;2022-09-16T01:50:06;10.00;99.90
5881;DHT22;2966;52.598;10.928;2022-09-16T01:52:48;10.10;99.90
5881;DHT22;2966;52.598;10.928;2022-09-16T01:55:22;10.10;99.90
5881;DHT22;2966;52.598;10.928;2022-09-16T01:57:54;10.20;99.90
5881;DHT22;2966;52.598;10.928;2022-09-16T02:00:23;10.20;99.90
5881;DHT22;2966;52.598;10.928;2022-09-16T02:02:55;10.10;99.90
5881;DHT22;2966;52.598;10.928;2022-09-16T02:05:27;10.10;99.90
5881;DHT22;2966;52.598;10.928;2022-09-16T02:08:00;10.10;99.90
5881;DHT22;2966;52.598;10.928;2022-09-16T02:10:30;10.10;99.90
5881;DHT22;2966;52.598;10.928;2022-09-16T02:13:04;10.00;99.90
5881;DHT22;2966;52.598;10.928;2022-09-16T02:15:32;10.10;99.90
5881;DHT22;2966;52.598;10.928;2022-09-16T02:18:06;10.00;99.90
5881;DHT22;2966;52.598;10.928;2022-09-16T02:20:37;10.00;99.90
5881;DHT22;2966;52.598;10.928;2022-09-16T02:23:09;10.00;99.90
5881;DHT22;2966;52.598;10.928;2022-09-16T02:25:39;9.90;99.90
5881;DHT22;2966;52.598;10.928;2022-09-16T02:28:11;10.00;99.90
5881;DHT22;2966;52.598;10.928;2022-09-16T02:30:42;10.10;99.90
5881;DHT22;2966;52.598;10.928;2022-09-16T02:33:12;10.10;99.90
5881;DHT22;2966;52.598;10.928;2022-09-16T02:35:44;10.10;99.90
5881;DHT22;2966;52.598;10.928;2022-09-16T02:38:15;10.10;99.90
5881;DHT22;2966;52.598;10.928;2022-09-16T02:40:46;10.00;99.90
5881;DHT22;2966;52.598;10.928;2022-09-16T02:43:15;10.10;99.90
5881;DHT22;2966;52.598;10.928;2022-09-16T02:45:47;10.10;99.90
5881;DHT22;2966;52.598;10.928;2022-09-16T02:48:21;10.10;99.90
5881;DHT22;2966;52.598;10.928;2022-09-16T02:50:56;10.10;99.90
5881;DHT22;2966;52.598;10.928;2022-09-16T02:53:29;10.10;99.90
5881;DHT22;2966;52.598;10.928;2022-09-16T02:56:02;10.20;99.90
5881;DHT22;2966;52.598;10.928;2022-09-16T02:58:31;10.20;99.90
5881;DHT22;2966;52.598;10.928;2022-09-16T03:00:58;10.20;99.90
5881;DHT22;2966;52.598;10.928;2022-09-16T03:03:27;10.20;99.90
5881;DHT22;2966;52.598;10.928;2022-09-16T03:06:12;10.20;99.90
5881;DHT22;2966;52.598;10.928;2022-09-16T03:08:39;10.20;99.90
5881;DHT22;2966;52.598;10.928;2022-09-16T03:11:13;10.20;99.90
5881;DHT22;2966;52.598;10.928;2022-09-16T03:13:48;10.20;99.90
5881;DHT22;2966;52.598;10.928;2022-09-16T03:16:22;10.20;99.90
5881;DHT22;2966;52.598;10.928;2022-09-16T03:19:00;10.20;99.90
5881;DHT22;2966;52.598;10.928;2022-09-16T03:21:35;10.20;99.90
5881;DHT22;2966;52.598;10.928;2022-09-16T03:24:08;10.20;99.90
5881;DHT22;2966;52.598;10.928;2022-09-16T03:26:42;10.20;99.90
5881;DHT22;2966;52.598;10.928;2022-09-16T03:29:16;10.10;99.90
5881;DHT22;2966;52.598;10.928;2022-09-16T03:31:47;10.10;99.90
5881;DHT22;2966;52.598;10.928;2022-09-16T03:34:20;10.10;99.90
5881;DHT22;2966;52.598;10.928;2022-09-16T03:36:51;10.10;99.90
5881;DHT22;2966;52.598;10.928;2022-09-16T03:39:18;10.20;99.90
5881;DHT22;2966;52.598;10.928;2022-09-16T03:41:47;10.20;99.90
5881;DHT22;2966;52.598;10.928;2022-09-16T03:44:14;10.20;99.90
5881;DHT22;2966;52.598;10.928;2022-09-16T03:46:40;10.20;99.90
5881;DHT22;2966;52.598;10.928;2022-09-16T03:49:07;10.20;99.90
5881;DHT22;2966;52.598;10.928;2022-09-16T03:51:36;10.20;99.90
5881;DHT22;2966;52.598;10.928;2022-09-16T03:54:03;10.30;99.90
5881;DHT22;2966;52.598;10.928;2022-09-16T03:56:30;10.30;99.90
5881;DHT22;2966;52.598;10.928;2022-09-16T03:58:56;10.30;99.90
5881;DHT22;2966;52.598;10.928;2022-09-16T04:01:23;10.30;99.90
5881;DHT22;2966;52.598;10.928;2022-09-16T04:03:50;10.30;99.90
5881;DHT22;2966;52.598;10.928;2022-09-16T04:06:19;10.30;99.90
5881;DHT22;2966;52.598;10.928;2022-09-16T04:08:48;10.30;99.90
5881;DHT22;2966;52.598;10.928;2022-09-16T04:11:18;10.30;99.90
5881;DHT22;2966;52.598;10.928;2022-09-16T04:13:44;10.30;99.90
5881;DHT22;2966;52.598;10.928;2022-09-16T04:16:17;10.30;99.90
5881;DHT22;2966;52.598;10.928;2022-09-16T04:18:44;10.30;99.90
5881;DHT22;2966;52.598;10.928;2022-09-16T04:21:11;10.30;99.90
5881;DHT22;2966;52.598;10.928;2022-09-16T04:23:38;10.30;99.90
5881;DHT22;2966;52.598;10.928;2022-09-16T04:26:06;10.30;99.90
5881;DHT22;2966;52.598;10.928;2022-09-16T04:28:33;10.30;99.90
5881;DHT22;2966;52.598;10.928;2022-09-16T04:31:05;10.20;99.90
5881;DHT22;2966;52.598;10.928;2022-09-16T04:33:34;10.30;99.90
5881;DHT22;2966;52.598;10.928;2022-09-16T04:36:03;10.30;99.90
5881;DHT22;2966;52.598;10.928;2022-09-16T04:38:30;10.30;99.90
5881;DHT22;2966;52.598;10.928;2022-09-16T04:41:00;10.30;99.90
5881;DHT22;2966;52.598;10.928;2022-09-16T04:43:29;10.30;99.90
5881;DHT22;2966;52.598;10.928;2022-09-16T04:45:56;10.40;99.90
5881;DHT22;2966;52.598;10.928;2022-09-16T04:48:23;10.40;99.90
5881;DHT22;2966;52.598;10.928;2022-09-16T04:50:50;10.40;99.90
5881;DHT22;2966;52.598;10.928;2022-09-16T04:53:17;10.50;99.90
5881;DHT22;2966;52.598;10.928;2022-09-16T04:55:44;10.50;99.90
5881;DHT22;2966;52.598;10.928;2022-09-16T04:58:11;10.50;99.90
5881;DHT22;2966;52.598;10.928;2022-09-16T05:00:39;10.50;99.90
5881;DHT22;2966;52.598;10.928;2022-09-16T05:03:06;10.50;99.90
5881;DHT22;2966;52.598;10.928;2022-09-16T05:05:33;10.50;99.90
5881;DHT22;2966;52.598;10.928;2022-09-16T05:08:00;10.50;99.90
5881;DHT22;2966;52.598;10.928;2022-09-16T05:10:27;10.50;99.90
5881;DHT22;2966;52.598;10.928;2022-09-16T05:12:54;10.50;99.90
5881;DHT22;2966;52.598;10.928;2022-09-16T05:15:21;10.50;99.90
5881;DHT22;2966;52.598;10.928;2022-09-16T05:17:49;10.60;99.90
5881;DHT22;2966;52.598;10.928;2022-09-16T05:20:16;10.50;99.90
5881;DHT22;2966;52.598;10.928;2022-09-16T05:22:43;10.60;99.90
5881;DHT22;2966;52.598;10.928;2022-09-16T05:25:09;10.60;99.90
5881;DHT22;2966;52.598;10.928;2022-09-16T05:27:36;10.60;99.90
5881;DHT22;2966;52.598;10.928;2022-09-16T05:30:03;10.60;99.90
5881;DHT22;2966;52.598;10.928;2022-09-16T05:32:30;10.60;99.90
5881;DHT22;2966;52.598;10.928;2022-09-16T05:34:59;10.60;99.90
5881;DHT22;2966;52.598;10.928;2022-09-16T05:37:25;10.60;99.90
5881;DHT22;2966;52.598;10.928;2022-09-16T05:39:52;10.60;99.90
5881;DHT22;2966;52.598;10.928;2022-09-16T05:42:19;10.60;99.90
5881;DHT22;2966;52.598;10.928;2022-09-16T05:44:46;10.60;99.90
5881;DHT22;2966;52.598;10.928;2022-09-16T05:47:13;10.50;99.90
5881;DHT22;2966;52.598;10.928;2022-09-16T05:49:40;10.50;99.90
5881;DHT22;2966;52.598;10.928;2022-09-16T05:52:11;10.50;99.90
5881;DHT22;2966;52.598;10.928;2022-09-16T05:54:37;10.50;99.90
5881;DHT22;2966;52.598;10.928;2022-09-16T05:57:04;10.60;99.90
5881;DHT22;2966;52.598;10.928;2022-09-16T05:59:31;10.60;99.90
5881;DHT22;2966;52.598;10.928;2022-09-16T06:01:59;10.60;99.90
5881;DHT22;2966;52.598;10.928;2022-09-16T06:04:25;10.60;99.90
5881;DHT22;2966;52.598;10.928;2022-09-16T06:06:52;10.60;99.90
5881;DHT22;2966;52.598;10.928;2022-09-16T06:09:21;10.70;99.90
5881;DHT22;2966;52.598;10.928;2022-09-16T06:11:51;10.70;99.90
5881;DHT22;2966;52.598;10.928;2022-09-16T06:14:18;10.70;99.90
5881;DHT22;2966;52.598;10.928;2022-09-16T06:16:47;10.80;99.90
5881;DHT22;2966;52.598;10.928;2022-09-16T06:19:15;10.90;99.90
5881;DHT22;2966;52.598;10.928;2022-09-16T06:21:43;11.00;99.90
5881;DHT22;2966;52.598;10.928;2022-09-16T06:24:11;11.00;99.90
5881;DHT22;2966;52.598;10.928;2022-09-16T06:26:42;11.10;99.90
5881;DHT22;2966;52.598;10.928;2022-09-16T06:29:09;11.20;99.90
5881;DHT22;2966;52.598;10.928;2022-09-16T06:31:37;11.20;99.90
5881;DHT22;2966;52.598;10.928;2022-09-16T06:34:04;11.30;99.90
5881;DHT22;2966;52.598;10.928;2022-09-16T06:36:33;11.40;99.90
5881;DHT22;2966;52.598;10.928;2022-09-16T06:39:01;11.40;99.90
5881;DHT22;2966;52.598;10.928;2022-09-16T06:41:29;11.60;99.90
5881;DHT22;2966;52.598;10.928;2022-09-16T06:43:57;11.70;99.90
5881;DHT22;2966;52.598;10.928;2022-09-16T06:46:25;11.60;99.90
5881;DHT22;2966;52.598;10.928;2022-09-16T06:48:54;11.50;99.90
5881;DHT22;2966;52.598;10.928;2022-09-16T06:51:23;11.70;99.90
5881;DHT22;2966;52.598;10.928;2022-09-16T06:53:50;11.70;99.90
5881;DHT22;2966;52.598;10.928;2022-09-16T06:56:19;11.70;99.90
5881;DHT22;2966;52.598;10.928;2022-09-16T06:58:48;11.80;99.90
5881;DHT22;2966;52.598;10.928;2022-09-16T07:01:19;11.90;99.90
5881;DHT22;2966;52.598;10.928;2022-09-16T07:03:48;12.00;99.90
5881;DHT22;2966;52.598;10.928;2022-09-16T07:06:17;12.10;99.90
5881;DHT22;2966;52.598;10.928;2022-09-16T07:08:44;12.20;99.90
5881;DHT22;2966;52.598;10.928;2022-09-16T07:11:12;12.30;99.90
5881;DHT22;2966;52.598;10.928;2022-09-16T07:13:40;12.30;99.90
5881;DHT22;2966;52.598;10.928;2022-09-16T07:16:08;12.40;99.90
5881;DHT22;2966;52.598;10.928;2022-09-16T07:18:37;12.50;99.90
5881;DHT22;2966;52.598;10.928;2022-09-16T07:21:05;12.40;99.90
5881;DHT22;2966;52.598;10.928;2022-09-16T07:23:34;12.40;99.90
5881;DHT22;2966;52.598;10.928;2022-09-16T07:26:03;12.50;99.90
5881;DHT22;2966;52.598;10.928;2022-09-16T07:28:30;12.50;99.90
5881;DHT22;2966;52.598;10.928;2022-09-16T07:30:59;12.40;99.90
5881;DHT22;2966;52.598;10.928;2022-09-16T07:33:26;12.50;99.90
5881;DHT22;2966;52.598;10.928;2022-09-16T07:35:58;12.60;99.90
5881;DHT22;2966;52.598;10.928;2022-09-16T07:38:24;12.70;99.90
5881;DHT22;2966;52.598;10.928;2022-09-16T07:40:51;12.70;99.90
5881;DHT22;2966;52.598;10.928;2022-09-16T07:43:18;12.80;99.90
5881;DHT22;2966;52.598;10.928;2022-09-16T07:45:45;12.90;99.90
5881;DHT22;2966;52.598;10.928;2022-09-16T07:48:11;13.20;99.90
5881;DHT22;2966;52.598;10.928;2022-09-16T07:50:38;13.20;99.90
5881;DHT22;2966;52.598;10.928;2022-09-16T07:53:06;13.30;99.90
5881;DHT22;2966;52.598;10.928;2022-09-16T07:55:34;13.20;99.90
5881;DHT22;2966;52.598;10.928;2022-09-16T07:58:03;12.90;99.90
5881;DHT22;2966;52.598;10.928;2022-09-16T08:00:30;12.90;99.90
5881;DHT22;2966;52.598;10.928;2022-09-16T08:02:57;12.80;99.90
5881;DHT22;2966;52.598;10.928;2022-09-16T08:05:27;12.90;99.90
5881;DHT22;2966;52.598;10.928;2022-09-16T08:07:53;13.10;99.90
5881;DHT22;2966;52.598;10.928;2022-09-16T08:10:24;13.30;99.90
5881;DHT22;2966;52.598;10.928;2022-09-16T08:12:50;13.30;99.90
5881;DHT22;2966;52.598;10.928;2022-09-16T08:15:20;13.40;99.90
5881;DHT22;2966;52.598;10.928;2022-09-16T08:17:47;13.40;99.90
5881;DHT22;2966;52.598;10.928;2022-09-16T08:20:13;13.50;99.90
5881;DHT22;2966;52.598;10.928;2022-09-16T08:22:40;13.60;99.90
5881;DHT22;2966;52.598;10.928;2022-09-16T08:25:07;13.70;99.90
5881;DHT22;2966;52.598;10.928;2022-09-16T08:27:36;13.80;99.90
5881;DHT22;2966;52.598;10.928;2022-09-16T08:30:03;13.90;99.90
5881;DHT22;2966;52.598;10.928;2022-09-16T08:32:30;13.90;99.90
5881;DHT22;2966;52.598;10.928;2022-09-16T08:34:56;13.90;99.90
5881;DHT22;2966;52.598;10.928;2022-09-16T08:37:23;13.80;99.90
5881;DHT22;2966;52.598;10.928;2022-09-16T08:39:50;13.80;99.90
5881;DHT22;2966;52.598;10.928;2022-09-16T08:42:38;13.90;99.90
5881;DHT22;2966;52.598;10.928;2022-09-16T08:45:18;13.70;99.90
5881;DHT22;2966;52.598;10.928;2022-09-16T08:47:57;13.80;99.90
5881;DHT22;2966;52.598;10.928;2022-09-16T08:50:32;13.70;99.90
5881;DHT22;2966;52.598;10.928;2022-09-16T08:53:04;13.80;99.90
5881;DHT22;2966;52.598;10.928;2022-09-16T08:55:36;13.80;99.90
5881;DHT22;2966;52.598;10.928;2022-09-16T08:58:09;13.80;99.90
5881;DHT22;2966;52.598;10.928;2022-09-16T09:00:38;14.20;99.90
5881;DHT22;2966;52.598;10.928;2022-09-16T09:03:13;14.30;99.90
5881;DHT22;2966;52.598;10.928;2022-09-16T09:05:48;14.20;99.90
5881;DHT22;2966;52.598;10.928;2022-09-16T09:08:27;14.00;99.90
5881;DHT22;2966;52.598;10.928;2022-09-16T09:11:01;14.00;99.90
5881;DHT22;2966;52.598;10.928;2022-09-16T09:13:41;14.10;99.90
5881;DHT22;2966;52.598;10.928;2022-09-16T09:16:20;14.30;99.90
5881;DHT22;2966;52.598;10.928;2022-09-16T09:19:01;14.50;99.90
5881;DHT22;2966;52.598;10.928;2022-09-16T09:21:37;14.80;99.90
5881;DHT22;2966;52.598;10.928;2022-09-16T09:24:21;14.90;99.90
5881;DHT22;2966;52.598;10.928;2022-09-16T09:26:57;14.50;99.90
5881;DHT22;2966;52.598;10.928;2022-09-16T09:29:43;14.40;99.90
5881;DHT22;2966;52.598;10.928;2022-09-16T09:32:19;14.40;99.90
5881;DHT22;2966;52.598;10.928;2022-09-16T09:34:59;14.40;99.90
5881;DHT22;2966;52.598;10.928;2022-09-16T09:37:41;14.80;99.90
5881;DHT22;2966;52.598;10.928;2022-09-16T09:40:12;14.80;99.90
5881;DHT22;2966;52.598;10.928;2022-09-16T09:42:44;14.50;99.90
5881;DHT22;2966;52.598;10.928;2022-09-16T09:45:18;14.70;99.90
5881;DHT22;2966;52.598;10.928;2022-09-16T09:47:49;15.00;99.90
5881;DHT22;2966;52.598;10.928;2022-09-16T09:50:21;14.80;99.90
5881;DHT22;2966;52.598;10.928;2022-09-16T09:52:55;14.90;99.90
5881;DHT22;2966;52.598;10.928;2022-09-16T09:55:25;14.90;99.90
5881;DHT22;2966;52.598;10.928;2022-09-16T09:58:09;15.10;99.90
5881;DHT22;2966;52.598;10.928;2022-09-16T10:00:38;15.40;99.90
5881;DHT22;2966;52.598;10.928;2022-09-16T10:03:08;15.40;99.90
5881;DHT22;2966;52.598;10.928;2022-09-16T10:05:35;15.40;99.90
5881;DHT22;2966;52.598;10.928;2022-09-16T10:08:04;15.30;99.90
5881;DHT22;2966;52.598;10.928;2022-09-16T10:10:43;15.50;99.90
5881;DHT22;2966;52.598;10.928;2022-09-16T10:13:11;15.20;99.90
5881;DHT22;2966;52.598;10.928;2022-09-16T10:15:40;15.40;99.90
5881;DHT22;2966;52.598;10.928;2022-09-16T10:18:12;15.40;99.90
5881;DHT22;2966;52.598;10.928;2022-09-16T10:20:42;15.50;99.90
5881;DHT22;2966;52.598;10.928;2022-09-16T10:23:11;15.80;99.90
5881;DHT22;2966;52.598;10.928;2022-09-16T10:25:39;15.90;99.90
5881;DHT22;2966;52.598;10.928;2022-09-16T10:28:18;15.50;99.90
5881;DHT22;2966;52.598;10.928;2022-09-16T10:30:49;15.40;99.90
5881;DHT22;2966;52.598;10.928;2022-09-16T10:33:22;15.70;99.90
5881;DHT22;2966;52.598;10.928;2022-09-16T10:35:54;15.50;99.90
5881;DHT22;2966;52.598;10.928;2022-09-16T10:38:24;15.40;99.90
5881;DHT22;2966;52.598;10.928;2022-09-16T10:40:53;15.30;99.90
5881;DHT22;2966;52.598;10.928;2022-09-16T10:43:23;15.50;99.90
5881;DHT22;2966;52.598;10.928;2022-09-16T10:45:55;15.50;99.90
5881;DHT22;2966;52.598;10.928;2022-09-16T10:48:25;15.30;99.90
5881;DHT22;2966;52.598;10.928;2022-09-16T10:50:54;14.90;99.90
5881;DHT22;2966;52.598;10.928;2022-09-16T10:53:27;14.90;99.90
5881;DHT22;2966;52.598;10.928;2022-09-16T10:55:59;15.10;99.90
5881;DHT22;2966;52.598;10.928;2022-09-16T10:58:27;15.20;99.90
5881;DHT22;2966;52.598;10.928;2022-09-16T11:01:09;14.90;99.90
5881;DHT22;2966;52.598;10.928;2022-09-16T11:04:04;14.60;99.90
5881;DHT22;2966;52.598;10.928;2022-09-16T11:06:48;15.00;99.90
5881;DHT22;2966;52.598;10.928;2022-09-16T11:09:22;15.50;99.90
5881;DHT22;2966;52.598;10.928;2022-09-16T11:12:02;15.50;99.90
5881;DHT22;2966;52.598;10.928;2022-09-16T11:14:38;15.20;99.90
5881;DHT22;2966;52.598;10.928;2022-09-16T11:17:28;15.40;99.90
5881;DHT22;2966;52.598;10.928;2022-09-16T11:20:08;15.60;99.90
5881;DHT22;2966;52.598;10.928;2022-09-16T11:22:45;15.70;99.90
5881;DHT22;2966;52.598;10.928;2022-09-16T11:25:22;16.10;99.90
5881;DHT22;2966;52.598;10.928;2022-09-16T11:27:59;15.80;99.90
5881;DHT22;2966;52.598;10.928;2022-09-16T11:30:31;15.90;99.90
5881;DHT22;2966;52.598;10.928;2022-09-16T11:33:20;16.30;99.90
5881;DHT22;2966;52.598;10.928;2022-09-16T11:36:09;16.70;99.90
5881;DHT22;2966;52.598;10.928;2022-09-16T11:38:48;16.70;99.90
5881;DHT22;2966;52.598;10.928;2022-09-16T11:41:21;16.80;99.90
5881;DHT22;2966;52.598;10.928;2022-09-16T11:44:12;17.00;99.90
5881;DHT22;2966;52.598;10.928;2022-09-16T11:46:48;16.80;99.90
5881;DHT22;2966;52.598;10.928;2022-09-16T11:49:29;16.80;99.90
5881;DHT22;2966;52.598;10.928;2022-09-16T11:52:08;16.60;99.90
5881;DHT22;2966;52.598;10.928;2022-09-16T11:55:02;16.60;99.90
5881;DHT22;2966;52.598;10.928;2022-09-16T11:57:35;16.60;99.90
5881;DHT22;2966;52.598;10.928;2022-09-16T12:00:05;16.70;99.90
5881;DHT22;2966;52.598;10.928;2022-09-16T12:02:38;16.70;99.90
5881;DHT22;2966;52.598;10.928;2022-09-16T12:05:13;16.70;99.90
5881;DHT22;2966;52.598;10.928;2022-09-16T12:07:49;17.00;99.90
5881;DHT22;2966;52.598;10.928;2022-09-16T12:10:21;16.70;99.90
5881;DHT22;2966;52.598;10.928;2022-09-16T12:12:51;16.70;99.90
5881;DHT22;2966;52.598;10.928;2022-09-16T12:15:21;17.00;99.90
5881;DHT22;2966;52.598;10.928;2022-09-16T12:17:55;17.20;99.90
5881;DHT22;2966;52.598;10.928;2022-09-16T12:20:28;16.90;99.90
5881;DHT22;2966;52.598;10.928;2022-09-16T12:23:03;16.90;99.90
5881;DHT22;2966;52.598;10.928;2022-09-16T12:25:34;16.90;99.90
5881;DHT22;2966;52.598;10.928;2022-09-16T12:28:06;17.10;99.90
5881;DHT22;2966;52.598;10.928;2022-09-16T12:30:39;17.20;99.90
5881;DHT22;2966;52.598;10.928;2022-09-16T12:33:14;16.80;99.90
5881;DHT22;2966;52.598;10.928;2022-09-16T12:35:47;16.80;99.90
5881;DHT22;2966;52.598;10.928;2022-09-16T12:38:16;16.50;99.90
5881;DHT22;2966;52.598;10.928;2022-09-16T12:40:55;16.20;99.90
5881;DHT22;2966;52.598;10.928;2022-09-16T12:43:53;16.40;99.90
5881;DHT22;2966;52.598;10.928;2022-09-16T12:46:48;16.30;99.90
5881;DHT22;2966;52.598;10.928;2022-09-16T12:49:45;16.90;99.90
5881;DHT22;2966;52.598;10.928;2022-09-16T12:52:24;17.40;99.90
5881;DHT22;2966;52.598;10.928;2022-09-16T12:55:20;17.50;99.90
5881;DHT22;2966;52.598;10.928;2022-09-16T12:58:02;17.40;99.90
5881;DHT22;2966;52.598;10.928;2022-09-16T13:00:37;17.20;99.90
5881;DHT22;2966;52.598;10.928;2022-09-16T13:03:12;16.60;99.90
5881;DHT22;2966;52.598;10.928;2022-09-16T13:05:44;16.60;99.90
5881;DHT22;2966;52.598;10.928;2022-09-16T13:08:19;16.40;99.90
5881;DHT22;2966;52.598;10.928;2022-09-16T13:10:54;16.40;99.90
5881;DHT22;2966;52.598;10.928;2022-09-16T13:13:29;16.20;99.90
5881;DHT22;2966;52.598;10.928;2022-09-16T13:15:58;16.10;99.90
5881;DHT22;2966;52.598;10.928;2022-09-16T13:18:38;16.00;99.90
5881;DHT22;2966;52.598;10.928;2022-09-16T13:21:21;16.00;99.90
5881;DHT22;2966;52.598;10.928;2022-09-16T13:23:58;16.00;99.90
5881;DHT22;2966;52.598;10.928;2022-09-16T13:26:37;15.50;99.90
5881;DHT22;2966;52.598;10.928;2022-09-16T13:29:23;14.80;99.90
5881;DHT22;2966;52.598;10.928;2022-09-16T13:31:52;14.30;99.90
5881;DHT22;2966;52.598;10.928;2022-09-16T13:34:19;14.10;99.90
5881;DHT22;2966;52.598;10.928;2022-09-16T13:36:46;14.30;99.90
5881;DHT22;2966;52.598;10.928;2022-09-16T13:39:27;14.80;99.90
5881;DHT22;2966;52.598;10.928;2022-09-16T13:41:54;15.20;99.90
5881;DHT22;2966;52.598;10.928;2022-09-16T13:44:38;15.40;99.90
5881;DHT22;2966;52.598;10.928;2022-09-16T13:47:28;15.50;99.90
5881;DHT22;2966;52.598;10.928;2022-09-16T13:49:58;15.50;99.90
5881;DHT22;2966;52.598;10.928;2022-09-16T13:52:28;15.50;99.90
5881;DHT22;2966;52.598;10.928;2022-09-16T13:54:58;15.50;99.90
5881;DHT22;2966;52.598;10.928;2022-09-16T13:57:35;15.60;99.90
5881;DHT22;2966;52.598;10.928;2022-09-16T14:00:21;15.70;99.90
5881;DHT22;2966;52.598;10.928;2022-09-16T14:03:21;15.80;99.90
5881;DHT22;2966;52.598;10.928;2022-09-16T14:06:17;15.80;99.90
5881;DHT22;2966;52.598;10.928;2022-09-16T14:08:53;15.70;99.90
5881;DHT22;2966;52.598;10.928;2022-09-16T14:11:30;15.90;99.90
5881;DHT22;2966;52.598;10.928;2022-09-16T14:14:03;15.90;99.90
5881;DHT22;2966;52.598;10.928;2022-09-16T14:16:32;15.80;99.90
5881;DHT22;2966;52.598;10.928;2022-09-16T14:19:05;15.90;99.90
5881;DHT22;2966;52.598;10.928;2022-09-16T14:21:32;15.80;99.90
5881;DHT22;2966;52.598;10.928;2022-09-16T14:24:07;15.80;99.90
5881;DHT22;2966;52.598;10.928;2022-09-16T14:26:50;15.90;99.90
5881;DHT22;2966;52.598;10.928;2022-09-16T14:29:17;16.00;99.90
5881;DHT22;2966;52.598;10.928;2022-09-16T14:31:44;15.90;99.90
5881;DHT22;2966;52.598;10.928;2022-09-16T14:34:14;16.10;99.90
5881;DHT22;2966;52.598;10.928;2022-09-16T14:36:42;16.30;99.90
5881;DHT22;2966;52.598;10.928;2022-09-16T14:39:13;16.20;99.90
5881;DHT22;2966;52.598;10.928;2022-09-16T14:41:44;16.30;99.90
5881;DHT22;2966;52.598;10.928;2022-09-16T14:44:20;16.20;99.90
5881;DHT22;2966;52.598;10.928;2022-09-16T14:46:53;16.00;99.90
5881;DHT22;2966;52.598;10.928;2022-09-16T14:49:21;15.90;99.90
5881;DHT22;2966;52.598;10.928;2022-09-16T14:51:50;15.80;99.90
5881;DHT22;2966;52.598;10.928;2022-09-16T14:54:21;15.80;99.90
5881;DHT22;2966;52.598;10.928;2022-09-16T14:56:55;15.80;99.90
5881;DHT22;2966;52.598;10.928;2022-09-16T14:59:26;15.80;99.90
5881;DHT22;2966;52.598;10.928;2022-09-16T15:01:55;15.80;99.90
5881;DHT22;2966;52.598;10.928;2022-09-16T15:04:27;15.80;99.90
5881;DHT22;2966;52.598;10.928;2022-09-16T15:06:59;15.70;99.90
5881;DHT22;2966;52.598;10.928;2022-09-16T15:09:35;15.80;99.90
5881;DHT22;2966;52.598;10.928;2022-09-16T15:12:04;15.60;99.90
5881;DHT22;2966;52.598;10.928;2022-09-16T15:14:36;15.40;99.90
5881;DHT22;2966;52.598;10.928;2022-09-16T15:17:03;15.30;99.90
5881;DHT22;2966;52.598;10.928;2022-09-16T15:19:34;15.30;99.90
5881;DHT22;2966;52.598;10.928;2022-09-16T15:22:02;15.30;99.90
5881;DHT22;2966;52.598;10.928;2022-09-16T15:24:32;15.30;99.90
5881;DHT22;2966;52.598;10.928;2022-09-16T15:27:00;15.40;99.90
5881;DHT22;2966;52.598;10.928;2022-09-16T15:29:30;15.40;99.90
5881;DHT22;2966;52.598;10.928;2022-09-16T15:32:15;15.40;99.90
5881;DHT22;2966;52.598;10.928;2022-09-16T15:34:43;15.40;99.90
5881;DHT22;2966;52.598;10.928;2022-09-16T15:37:29;15.50;99.90
5881;DHT22;2966;52.598;10.928;2022-09-16T15:40:07;15.50;99.90
5881;DHT22;2966;52.598;10.928;2022-09-16T15:42:34;15.30;99.90
5881;DHT22;2966;52.598;10.928;2022-09-16T15:45:02;15.20;99.90
5881;DHT22;2966;52.598;10.928;2022-09-16T15:47:52;15.10;99.90
5881;DHT22;2966;52.598;10.928;2022-09-16T15:50:20;15.00;99.90
5881;DHT22;2966;52.598;10.928;2022-09-16T15:52:54;14.90;99.90
5881;DHT22;2966;52.598;10.928;2022-09-16T15:55:30;14.90;99.90
5881;DHT22;2966;52.598;10.928;2022-09-16T15:58:01;14.90;99.90
5881;DHT22;2966;52.598;10.928;2022-09-16T16:00:55;14.90;99.90
5881;DHT22;2966;52.598;10.928;2022-09-16T16:03:24;14.90;99.90
5881;DHT22;2966;52.598;10.928;2022-09-16T16:05:53;14.80;99.90
5881;DHT22;2966;52.598;10.928;2022-09-16T16:08:38;14.80;99.90
5881;DHT22;2966;52.598;10.928;2022-09-16T16:11:08;14.70;99.90
5881;DHT22;2966;52.598;10.928;2022-09-16T16:13:35;14.70;99.90
5881;DHT22;2966;52.598;10.928;2022-09-16T16:16:02;14.70;99.90
5881;DHT22;2966;52.598;10.928;2022-09-16T16:18:31;14.60;99.90